Time;durP1;ratioP1;P1;durP2;ratioP2;P2;SDS_P1;SDS_P2;PMS_P1;PMS_P2;Temp;Humidity;BMP_temperature;BMP_pressure;BME280_temperature;BME280_humidity;BME280_pressure;Samples;Min_cycle;Max_cycle;Signal;HPM_P1;HPM_P2
2022/12/18 00:01:48;;;;;;;130.95;36.58;;;-3.00;99.90;;;;;;5051614;28;20049;-78
2022/12/18 00:04:25;;;;;;;145.75;40.05;;;-3.00;99.90;;;;;;5051646;28;20041;-78
2022/12/18 00:06:50;;;;;;;160.20;46.42;;;-3.10;99.90;;;;;;5051928;28;20171;-78
2022/12/18 00:09:16;;;;;;;141.68;41.78;;;-3.10;99.90;;;;;;5051846;28;20127;-78
2022/12/18 00:11:42;;;;;;;143.15;40.17;;;-3.10;99.90;;;;;;5051462;28;20067;-78
2022/12/18 00:14:10;;;;;;;150.98;41.10;;;-3.10;99.90;;;;;;5052907;28;20036;-78
2022/12/18 00:16:36;;;;;;;142.48;42.45;;;-3.00;99.90;;;;;;5055098;28;20040;-78
2022/12/18 00:19:03;;;;;;;139.80;42.65;;;-3.00;99.90;;;;;;5055104;28;20559;-78
2022/12/18 00:21:30;;;;;;;156.63;46.25;;;-3.10;99.90;;;;;;5055144;28;20052;-78
2022/12/18 00:23:57;;;;;;;129.50;38.72;;;-3.10;99.90;;;;;;5054899;28;20051;-78
2022/12/18 00:26:26;;;;;;;168.07;45.40;;;-3.00;99.90;;;;;;5055070;28;20455;-78
2022/12/18 00:28:52;;;;;;;150.38;43.92;;;-3.00;99.90;;;;;;5054870;28;20127;-78
2022/12/18 00:31:21;;;;;;;145.85;42.00;;;-3.10;99.90;;;;;;5054811;28;20492;-78
2022/12/18 00:33:47;;;;;;;151.00;43.15;;;-3.10;99.90;;;;;;5055104;28;20488;-78
2022/12/18 00:36:17;;;;;;;134.30;38.63;;;-3.00;99.90;;;;;;5054742;28;20093;-77
2022/12/18 00:38:43;;;;;;;150.88;43.92;;;-3.00;99.90;;;;;;5054662;28;20045;-78
2022/12/18 00:41:10;;;;;;;144.70;36.97;;;-3.00;99.90;;;;;;5054909;28;20103;-78
2022/12/18 00:43:38;;;;;;;152.70;42.47;;;-3.10;99.90;;;;;;5054833;28;20052;-78
2022/12/18 00:46:04;;;;;;;142.05;42.58;;;-3.20;99.90;;;;;;5054491;28;20053;-77
2022/12/18 00:48:30;;;;;;;153.07;40.55;;;-3.10;99.90;;;;;;5054649;28;20511;-78
2022/12/18 00:50:55;;;;;;;161.98;44.38;;;-3.10;99.90;;;;;;5054803;28;20048;-78
2022/12/18 00:53:21;;;;;;;157.18;41.58;;;-3.20;99.90;;;;;;5054200;28;20041;-78
2022/12/18 00:55:47;;;;;;;148.35;40.15;;;-3.20;99.90;;;;;;5054301;28;20087;-78
2022/12/18 00:58:15;;;;;;;161.27;43.70;;;-3.10;99.90;;;;;;5054649;28;20119;-78
2022/12/18 01:00:41;;;;;;;159.65;46.60;;;-3.00;99.90;;;;;;5054607;28;20167;-78
2022/12/18 01:03:07;;;;;;;140.85;39.33;;;-3.20;99.90;;;;;;5054553;28;20395;-78
2022/12/18 01:05:32;;;;;;;156.57;42.80;;;-3.10;99.90;;;;;;5054248;28;20041;-78
2022/12/18 01:07:59;;;;;;;167.60;49.45;;;-3.10;99.90;;;;;;5054332;28;20492;-78
2022/12/18 01:10:25;;;;;;;140.10;40.13;;;-3.10;99.90;;;;;;5054363;28;20045;-78
2022/12/18 01:12:51;;;;;;;144.48;38.70;;;-3.10;99.90;;;;;;5054059;28;20132;-78
2022/12/18 01:15:17;;;;;;;153.75;43.85;;;-3.10;99.90;;;;;;5054268;28;20128;-78
2022/12/18 01:17:43;;;;;;;162.93;48.25;;;-3.10;99.90;;;;;;5054243;28;20111;-77
2022/12/18 01:20:10;;;;;;;131.70;37.05;;;-3.20;99.90;;;;;;5053822;28;20036;-77
2022/12/18 01:22:36;;;;;;;142.00;41.65;;;-3.30;99.90;;;;;;5053719;28;20397;-77
2022/12/18 01:25:03;;;;;;;145.55;41.78;;;-3.30;99.90;;;;;;5053410;28;20045;-77
2022/12/18 01:27:29;;;;;;;141.90;43.35;;;-3.30;99.90;;;;;;5053668;28;20041;-77
2022/12/18 01:29:55;;;;;;;172.23;46.75;;;-3.20;99.90;;;;;;5053807;28;20123;-77
2022/12/18 01:32:21;;;;;;;145.85;41.83;;;-3.20;99.90;;;;;;5055103;28;20139;-77
2022/12/18 01:34:47;;;;;;;159.65;43.03;;;-3.30;99.90;;;;;;5053861;28;20496;-77
2022/12/18 01:37:13;;;;;;;151.25;43.42;;;-3.20;99.90;;;;;;5053538;28;20052;-77
2022/12/18 01:39:38;;;;;;;158.15;42.50;;;-3.30;99.90;;;;;;5053545;28;20047;-77
2022/12/18 01:42:13;;;;;;;151.50;41.05;;;-3.20;99.90;;;;;;5053783;28;20523;-77
2022/12/18 01:44:57;;;;;;;147.90;40.15;;;-3.20;99.90;;;;;;5053454;28;20429;-77
2022/12/18 01:47:48;;;;;;;131.13;36.15;;;-3.20;99.90;;;;;;5053273;28;20063;-77
2022/12/18 01:50:19;;;;;;;164.13;43.17;;;-3.20;99.90;;;;;;5053336;28;20432;-77
2022/12/18 01:52:52;;;;;;;160.75;44.45;;;-3.20;99.90;;;;;;5053594;28;20503;-77
2022/12/18 01:55:22;;;;;;;152.85;42.22;;;-3.40;99.90;;;;;;5053173;28;20098;-77
2022/12/18 01:57:49;;;;;;;147.73;44.47;;;-3.40;99.90;;;;;;5054343;28;20056;-77
2022/12/18 02:00:17;;;;;;;167.93;43.20;;;-3.30;99.90;;;;;;5054455;28;20033;-77
2022/12/18 02:02:45;;;;;;;148.90;43.83;;;-3.50;99.90;;;;;;5054264;28;20056;-77
2022/12/18 02:05:14;;;;;;;139.38;43.00;;;-3.30;99.90;;;;;;5053199;28;20523;-77
2022/12/18 02:08:09;;;;;;;140.35;39.97;;;-3.40;99.90;;;;;;5053391;28;20045;-77
2022/12/18 02:11:11;;;;;;;153.25;41.40;;;-3.50;99.90;;;;;;5052887;28;20059;-77
2022/12/18 02:13:48;;;;;;;130.20;36.45;;;-3.40;99.90;;;;;;5052731;28;20068;-77
2022/12/18 02:16:42;;;;;;;138.02;34.63;;;-3.40;99.90;;;;;;5053004;28;20052;-77
2022/12/18 02:19:39;;;;;;;129.45;37.25;;;-3.40;99.90;;;;;;5053113;28;20088;-77
2022/12/18 02:22:26;;;;;;;153.45;39.88;;;-3.40;99.90;;;;;;5052859;28;20155;-77
2022/12/18 02:25:02;;;;;;;143.77;41.15;;;-3.50;99.90;;;;;;5052901;28;20079;-77
2022/12/18 02:27:37;;;;;;;126.80;35.88;;;-3.60;99.90;;;;;;5052695;28;20503;-77
2022/12/18 02:30:04;;;;;;;146.02;36.67;;;-3.50;99.90;;;;;;5052921;28;20041;-77
2022/12/18 02:32:38;;;;;;;141.27;38.90;;;-3.50;99.90;;;;;;5052884;28;20048;-77
2022/12/18 02:35:06;;;;;;;122.82;33.42;;;-3.50;99.90;;;;;;5052581;28;20045;-77
2022/12/18 02:37:34;;;;;;;145.20;36.58;;;-3.60;99.90;;;;;;5052361;28;20060;-77
2022/12/18 02:40:01;;;;;;;143.48;41.67;;;-3.50;99.90;;;;;;5052450;28;20072;-77
2022/12/18 02:42:28;;;;;;;134.40;38.55;;;-3.60;99.90;;;;;;5052421;28;20052;-77
2022/12/18 02:44:57;;;;;;;134.13;38.28;;;-3.60;99.90;;;;;;5052202;28;20053;-77
2022/12/18 02:47:31;;;;;;;131.77;37.92;;;-3.60;99.90;;;;;;5052188;28;20071;-76
2022/12/18 02:50:05;;;;;;;149.63;39.47;;;-3.60;99.90;;;;;;5052597;28;20044;-77
2022/12/18 02:52:52;;;;;;;137.18;37.25;;;-3.70;99.90;;;;;;5052605;28;20045;-76
2022/12/18 02:55:39;;;;;;;123.78;35.95;;;-3.60;99.90;;;;;;5052511;28;20116;-76
2022/12/18 02:58:26;;;;;;;133.23;37.80;;;-3.80;99.90;;;;;;5052596;28;20393;-77
2022/12/18 03:01:15;;;;;;;141.07;38.30;;;-3.60;99.90;;;;;;5052498;28;20468;-76
2022/12/18 03:03:54;;;;;;;143.82;39.08;;;-3.80;99.90;;;;;;5052254;28;20076;-76
2022/12/18 03:06:38;;;;;;;133.52;38.28;;;-3.70;99.90;;;;;;5052303;28;20041;-76
2022/12/18 03:09:09;;;;;;;138.93;37.50;;;-3.80;99.90;;;;;;5052400;28;20080;-76
2022/12/18 03:14:29;;;;;;;127.72;37.05;;;-3.70;99.90;;;;;;5052190;28;20110;-76
2022/12/18 03:17:01;;;;;;;143.23;36.50;;;-3.80;99.90;;;;;;5051975;28;20397;-77
2022/12/18 03:19:29;;;;;;;113.63;36.90;;;-3.80;99.90;;;;;;5053484;28;20121;-76
2022/12/18 03:21:57;;;;;;;145.55;39.28;;;-3.80;99.90;;;;;;5052326;28;20056;-77
2022/12/18 03:24:26;;;;;;;135.48;36.25;;;-3.80;99.90;;;;;;5052252;28;20053;-76
2022/12/18 03:26:57;;;;;;;130.30;37.58;;;-3.80;99.90;;;;;;5052356;28;20081;-77
2022/12/18 03:29:27;;;;;;;133.05;35.45;;;-3.80;99.90;;;;;;5053286;28;20408;-76
2022/12/18 03:32:30;;;;;;;124.65;36.60;;;-3.90;99.90;;;;;;5053429;28;20041;-77
2022/12/18 03:34:59;;;;;;;128.60;37.53;;;-3.80;99.90;;;;;;5052557;28;20049;-76
2022/12/18 03:37:25;;;;;;;131.00;37.70;;;-3.80;99.90;;;;;;5052165;28;20080;-77
2022/12/18 03:39:50;;;;;;;130.60;38.10;;;-3.90;99.90;;;;;;5052226;28;20489;-77
2022/12/18 03:42:41;;;;;;;124.18;35.03;;;-3.90;99.90;;;;;;5051996;28;20477;-77
2022/12/18 03:45:10;;;;;;;124.63;37.58;;;-3.90;99.90;;;;;;5051498;28;20496;-76
2022/12/18 03:47:42;;;;;;;128.32;38.80;;;-3.90;99.90;;;;;;5051854;28;20049;-76
2022/12/18 03:50:35;;;;;;;126.00;35.78;;;-3.90;99.90;;;;;;5056297;28;20067;-76
2022/12/18 03:53:26;;;;;;;113.30;31.55;;;-4.00;99.90;;;;;;5055880;28;20124;-77
2022/12/18 03:55:52;;;;;;;111.18;31.67;;;-3.90;99.90;;;;;;5055791;28;20129;-76
2022/12/18 03:58:24;;;;;;;112.30;35.30;;;-4.00;99.90;;;;;;5056839;28;20134;-76
2022/12/18 04:00:52;;;;;;;120.80;33.63;;;-4.00;99.90;;;;;;5055687;28;20040;-76
2022/12/18 04:03:19;;;;;;;134.55;35.42;;;-4.00;99.90;;;;;;5055257;28;20060;-76
2022/12/18 04:05:52;;;;;;;122.47;36.97;;;-4.10;99.90;;;;;;5056720;28;20041;-76
2022/12/18 04:08:19;;;;;;;123.25;32.92;;;-4.00;99.90;;;;;;5055419;28;20048;-77
2022/12/18 04:10:45;;;;;;;129.57;34.75;;;-4.10;99.90;;;;;;5055339;28;20045;-76
2022/12/18 04:13:10;;;;;;;117.60;32.75;;;-4.10;99.90;;;;;;5055285;28;20094;-77
2022/12/18 04:15:37;;;;;;;119.50;35.33;;;-4.10;99.90;;;;;;5056463;28;20098;-76
2022/12/18 04:18:03;;;;;;;129.95;35.92;;;-4.10;99.90;;;;;;5055354;28;20052;-76
2022/12/18 04:20:29;;;;;;;117.43;34.22;;;-4.20;99.90;;;;;;5055030;28;20052;-76
2022/12/18 04:22:54;;;;;;;116.70;36.55;;;-4.20;99.90;;;;;;5055399;28;20081;-76
2022/12/18 04:25:20;;;;;;;117.80;34.30;;;-4.30;99.90;;;;;;5056328;28;20501;-76
2022/12/18 04:27:46;;;;;;;112.63;35.28;;;-4.40;99.90;;;;;;5054797;28;20052;-76
2022/12/18 04:30:11;;;;;;;120.47;35.92;;;-4.30;99.90;;;;;;5055137;28;20079;-76
2022/12/18 04:32:37;;;;;;;117.22;36.25;;;-4.30;99.90;;;;;;5054668;28;20401;-76
2022/12/18 04:35:06;;;;;;;117.38;36.15;;;-4.40;99.90;;;;;;5056081;28;20178;-76
2022/12/18 04:37:31;;;;;;;133.68;41.80;;;-4.40;99.90;;;;;;5054880;28;20496;-76
2022/12/18 04:39:57;;;;;;;117.40;36.22;;;-4.40;99.90;;;;;;5054776;28;20053;-76
2022/12/18 04:42:23;;;;;;;136.95;41.75;;;-4.40;99.90;;;;;;5054550;28;20055;-75
2022/12/18 04:44:49;;;;;;;126.78;38.15;;;-4.50;99.90;;;;;;5055097;28;20142;-76
2022/12/18 04:47:15;;;;;;;135.60;37.60;;;-4.50;99.90;;;;;;5054949;28;20485;-76
2022/12/18 04:49:40;;;;;;;113.70;36.05;;;-4.40;99.90;;;;;;5054765;28;20464;-76
2022/12/18 04:52:06;;;;;;;117.55;38.63;;;-4.60;99.90;;;;;;5054781;28;20574;-75
2022/12/18 04:54:32;;;;;;;116.43;37.97;;;-4.50;99.90;;;;;;5055715;28;20112;-76
2022/12/18 04:56:58;;;;;;;135.93;44.58;;;-4.40;99.90;;;;;;5054153;28;20056;-76
2022/12/18 04:59:23;;;;;;;118.00;37.08;;;-4.60;99.90;;;;;;5054042;28;20538;-75
2022/12/18 05:01:49;;;;;;;123.32;41.10;;;-4.50;99.90;;;;;;5053304;28;20060;-75
2022/12/18 05:04:14;;;;;;;119.40;36.17;;;-4.50;99.90;;;;;;5055596;28;20041;-76
2022/12/18 05:06:40;;;;;;;120.80;38.53;;;-4.50;99.90;;;;;;5054228;28;20048;-75
2022/12/18 05:09:06;;;;;;;124.68;37.47;;;-4.40;99.90;;;;;;5054223;28;20045;-75
2022/12/18 05:11:32;;;;;;;113.97;38.90;;;-4.50;99.90;;;;;;5055190;28;20128;-75
2022/12/18 05:13:58;;;;;;;124.35;41.03;;;-4.40;99.90;;;;;;5054052;28;20120;-75
2022/12/18 05:16:23;;;;;;;99.60;32.60;;;-4.50;99.90;;;;;;5053907;28;20131;-76
2022/12/18 05:18:49;;;;;;;124.40;37.88;;;-4.40;99.90;;;;;;5055263;28;20087;-76
2022/12/18 05:21:14;;;;;;;111.28;35.55;;;-4.50;99.90;;;;;;5054050;28;20033;-76
2022/12/18 05:23:40;;;;;;;127.05;42.95;;;-4.40;99.90;;;;;;5053942;28;20124;-76
2022/12/18 05:26:07;;;;;;;111.18;36.70;;;-4.50;99.90;;;;;;5055195;28;20037;-76
2022/12/18 05:28:35;;;;;;;114.15;36.97;;;-4.50;99.90;;;;;;5055039;28;20086;-76
2022/12/18 05:31:02;;;;;;;125.20;36.85;;;-4.60;99.90;;;;;;5054015;28;20056;-75
2022/12/18 05:33:30;;;;;;;102.03;33.97;;;-4.60;99.90;;;;;;5053977;28;20053;-76
2022/12/18 05:36:01;;;;;;;117.15;35.53;;;-4.60;99.90;;;;;;5053837;28;20068;-75
2022/12/18 05:38:28;;;;;;;118.38;34.70;;;-4.60;99.90;;;;;;5053669;28;20048;-75
2022/12/18 05:40:54;;;;;;;126.75;40.33;;;-4.50;99.90;;;;;;5053708;28;20052;-75
2022/12/18 05:43:21;;;;;;;103.97;36.80;;;-4.50;99.90;;;;;;5053717;28;20037;-76
2022/12/18 05:45:48;;;;;;;99.15;34.63;;;-4.60;99.90;;;;;;5053346;28;20084;-75
2022/12/18 05:48:13;;;;;;;96.25;32.05;;;-4.50;99.90;;;;;;5053492;28;20055;-75
2022/12/18 05:50:41;;;;;;;115.25;34.60;;;-4.60;99.90;;;;;;5053453;28;20049;-76
2022/12/18 05:53:07;;;;;;;106.07;34.03;;;-4.50;99.90;;;;;;5053202;28;20484;-76
2022/12/18 05:55:37;;;;;;;107.43;35.80;;;-4.50;99.90;;;;;;5053138;28;20049;-76
2022/12/18 05:58:07;;;;;;;106.07;36.00;;;-4.50;99.90;;;;;;5053501;28;20052;-75
2022/12/18 06:00:35;;;;;;;95.80;33.35;;;-4.50;99.90;;;;;;5054404;28;20184;-76
2022/12/18 06:03:02;;;;;;;96.15;33.42;;;-4.50;99.90;;;;;;5053421;28;20095;-75
2022/12/18 06:05:42;;;;;;;92.07;31.02;;;-4.60;99.90;;;;;;5053349;28;20036;-75
2022/12/18 06:08:08;;;;;;;97.53;31.15;;;-4.60;99.90;;;;;;5054236;28;20045;-75
2022/12/18 06:10:34;;;;;;;88.85;33.20;;;-4.60;99.90;;;;;;5053107;28;20045;-75
2022/12/18 06:13:00;;;;;;;100.50;32.90;;;-4.60;99.90;;;;;;5052883;28;20132;-75
2022/12/18 06:15:26;;;;;;;93.10;31.13;;;-4.70;99.90;;;;;;5052923;28;20049;-75
2022/12/18 06:17:52;;;;;;;94.72;34.47;;;-4.70;99.90;;;;;;5052868;28;20041;-75
2022/12/18 06:20:18;;;;;;;95.13;34.15;;;-4.70;99.90;;;;;;5052693;28;20132;-76
2022/12/18 06:22:43;;;;;;;96.57;33.95;;;-4.60;99.90;;;;;;5053035;28;20080;-75
2022/12/18 06:25:09;;;;;;;95.85;35.28;;;-4.80;99.90;;;;;;5052694;28;20122;-75
2022/12/18 06:27:34;;;;;;;93.50;33.28;;;-4.70;99.90;;;;;;5052995;28;20094;-76
2022/12/18 06:30:00;;;;;;;84.47;32.42;;;-4.80;99.90;;;;;;5052674;28;20504;-75
2022/12/18 06:32:26;;;;;;;92.05;32.38;;;-4.70;99.90;;;;;;5052753;28;20041;-75
2022/12/18 06:34:53;;;;;;;77.70;28.75;;;-4.70;99.90;;;;;;5052430;28;20374;-75
2022/12/18 06:37:19;;;;;;;95.10;31.83;;;-4.80;99.90;;;;;;5052186;28;20048;-75
2022/12/18 06:39:45;;;;;;;81.53;31.33;;;-4.80;99.90;;;;;;5053825;28;20041;-75
2022/12/18 06:42:10;;;;;;;95.13;34.97;;;-4.80;99.90;;;;;;5052778;28;20056;-75
2022/12/18 06:44:36;;;;;;;88.63;30.23;;;-4.80;99.90;;;;;;5052247;28;20049;-75
2022/12/18 06:47:02;;;;;;;87.65;30.98;;;-4.70;99.90;;;;;;5052693;28;20124;-75
2022/12/18 06:49:30;;;;;;;88.82;32.08;;;-4.70;99.90;;;;;;5052546;28;20045;-75
2022/12/18 06:51:56;;;;;;;81.75;31.55;;;-4.70;99.90;;;;;;5052592;28;20091;-75
2022/12/18 06:54:21;;;;;;;76.40;27.83;;;-4.70;99.90;;;;;;5052621;28;20071;-75
2022/12/18 06:56:47;;;;;;;72.80;28.60;;;-4.70;99.90;;;;;;5052343;28;20395;-75
2022/12/18 06:59:14;;;;;;;88.93;32.10;;;-4.60;99.90;;;;;;5053628;28;20037;-75
2022/12/18 07:01:40;;;;;;;74.68;27.55;;;-4.70;99.90;;;;;;5052309;28;20056;-76
2022/12/18 07:04:06;;;;;;;85.03;31.77;;;-4.70;99.90;;;;;;5052134;28;20067;-75
2022/12/18 07:06:31;;;;;;;85.60;29.95;;;-4.80;99.90;;;;;;5052365;28;20091;-75
2022/12/18 07:08:57;;;;;;;81.28;29.80;;;-4.80;99.90;;;;;;5053310;28;20111;-75
2022/12/18 07:11:23;;;;;;;86.72;30.42;;;-4.80;99.90;;;;;;5052130;28;20045;-75
2022/12/18 07:13:49;;;;;;;72.43;26.27;;;-4.90;99.90;;;;;;5052242;28;20055;-75
2022/12/18 07:16:17;;;;;;;88.03;29.83;;;-4.90;99.90;;;;;;5052163;28;20041;-75
2022/12/18 07:18:43;;;;;;;83.35;27.65;;;-4.90;99.90;;;;;;5052014;28;20124;-75
2022/12/18 07:21:13;;;;;;;87.13;29.00;;;-4.90;99.90;;;;;;5052071;28;20455;-75
2022/12/18 07:23:39;;;;;;;66.88;26.33;;;-4.90;99.90;;;;;;5053696;28;20052;-75
2022/12/18 07:26:10;;;;;;;86.57;30.90;;;-4.90;99.90;;;;;;5055131;28;20052;-75
2022/12/18 07:28:37;;;;;;;83.80;33.33;;;-4.90;99.90;;;;;;5057019;28;20182;-75
2022/12/18 07:31:17;;;;;;;82.30;28.73;;;-4.90;99.90;;;;;;5055758;28;20515;-75
2022/12/18 07:33:44;;;;;;;87.70;30.38;;;-5.00;99.90;;;;;;5057295;28;20056;-75
2022/12/18 07:36:09;;;;;;;88.32;30.77;;;-4.90;99.90;;;;;;5056957;28;20041;-75
2022/12/18 07:38:35;;;;;;;89.65;35.55;;;-4.90;99.90;;;;;;5057102;28;20048;-75
2022/12/18 07:41:03;;;;;;;104.97;38.42;;;-4.90;99.90;;;;;;5055642;28;20124;-75
2022/12/18 07:43:29;;;;;;;86.80;35.20;;;-4.80;99.90;;;;;;5055531;28;20045;-75
2022/12/18 07:45:55;;;;;;;103.00;43.95;;;-4.90;99.90;;;;;;5056638;28;20064;-75
2022/12/18 07:48:20;;;;;;;107.95;46.75;;;-4.90;99.90;;;;;;5056880;28;20056;-75
2022/12/18 07:50:46;;;;;;;103.95;37.25;;;-4.90;99.90;;;;;;5056774;28;20053;-75
2022/12/18 07:53:12;;;;;;;110.57;40.78;;;-4.90;99.90;;;;;;5056719;28;20045;-76
2022/12/18 07:55:38;;;;;;;126.82;45.90;;;-4.80;99.90;;;;;;5055237;28;20071;-75
2022/12/18 07:58:04;;;;;;;84.45;34.67;;;-4.80;99.90;;;;;;5055282;28;20044;-75
2022/12/18 08:00:31;;;;;;;83.10;31.73;;;-4.80;99.90;;;;;;5056588;28;20542;-75
2022/12/18 08:02:57;;;;;;;77.38;32.22;;;-4.80;99.90;;;;;;5056595;28;20041;-75
2022/12/18 08:05:23;;;;;;;72.63;27.80;;;-4.80;99.90;;;;;;5055363;28;20049;-75
2022/12/18 08:07:49;;;;;;;82.97;29.50;;;-4.80;99.90;;;;;;5056489;28;20084;-75
2022/12/18 08:10:15;;;;;;;83.55;31.13;;;-4.70;99.90;;;;;;5056229;28;20068;-75
2022/12/18 08:12:41;;;;;;;78.07;30.73;;;-4.70;99.90;;;;;;5054918;28;20037;-76
2022/12/18 08:15:07;;;;;;;69.63;28.27;;;-4.70;99.90;;;;;;5054868;28;20049;-76
2022/12/18 08:17:33;;;;;;;73.75;28.42;;;-4.70;99.90;;;;;;5054826;28;20090;-75
2022/12/18 08:19:58;;;;;;;81.93;29.58;;;-4.60;99.90;;;;;;5056299;28;20037;-75
2022/12/18 08:22:25;;;;;;;84.85;32.30;;;-4.60;99.90;;;;;;5056072;28;20045;-77
2022/12/18 08:24:50;;;;;;;76.70;29.40;;;-4.60;99.90;;;;;;5056018;28;20048;-75
2022/12/18 08:27:16;;;;;;;84.57;29.83;;;-4.70;99.90;;;;;;5051800;28;20051;-75
2022/12/18 08:29:42;;;;;;;72.05;27.30;;;-4.60;99.90;;;;;;5039717;28;20037;-75
2022/12/18 08:32:08;;;;;;;75.93;29.85;;;-4.60;99.90;;;;;;5034494;28;20523;-74
2022/12/18 08:34:34;;;;;;;69.32;28.45;;;-4.50;99.90;;;;;;5035527;28;20037;-74
2022/12/18 08:36:59;;;;;;;87.43;31.10;;;-4.50;99.90;;;;;;5034564;28;20046;-75
2022/12/18 08:39:28;;;;;;;73.35;26.27;;;-4.50;99.90;;;;;;5035921;28;20375;-74
2022/12/18 08:44:37;;;;;;;65.28;28.25;;;-4.50;99.90;;;;;;5034047;28;20386;-74
2022/12/18 08:47:04;;;;;;;74.43;29.50;;;-4.50;99.90;;;;;;5035796;28;20496;-74
2022/12/18 08:49:29;;;;;;;72.30;30.48;;;-4.40;99.90;;;;;;5034199;28;20041;-74
2022/12/18 08:51:57;;;;;;;71.72;28.55;;;-4.40;99.90;;;;;;5034367;28;20060;-74
2022/12/18 08:54:26;;;;;;;65.40;25.77;;;-4.40;99.90;;;;;;5034398;28;20053;-74
2022/12/18 08:56:52;;;;;;;80.53;30.15;;;-4.30;99.90;;;;;;5033957;28;20053;-74
2022/12/18 08:59:18;;;;;;;77.97;30.70;;;-4.40;99.90;;;;;;5035516;28;20056;-74
2022/12/18 09:01:44;;;;;;;71.93;27.92;;;-4.30;99.90;;;;;;5033944;28;20045;-74
2022/12/18 09:04:10;;;;;;;79.55;28.90;;;-4.30;99.90;;;;;;5035348;28;20045;-75
2022/12/18 09:06:36;;;;;;;64.25;28.55;;;-4.20;99.90;;;;;;5033753;28;20050;-74
2022/12/18 09:09:03;;;;;;;60.20;26.40;;;-4.30;99.90;;;;;;5034028;28;20045;-74
2022/12/18 09:11:29;;;;;;;69.07;30.52;;;-4.20;99.90;;;;;;5034006;28;20045;-74
2022/12/18 09:13:55;;;;;;;69.30;26.80;;;-4.20;99.90;;;;;;5033730;28;20045;-75
2022/12/18 09:16:23;;;;;;;66.97;29.05;;;-4.10;99.90;;;;;;5033586;28;20433;-74
2022/12/18 09:18:48;;;;;;;64.88;27.45;;;-4.00;99.90;;;;;;5033942;28;20049;-76
2022/12/18 09:21:19;;;;;;;67.15;26.83;;;-3.90;99.90;;;;;;5033703;28;20077;-82
2022/12/18 09:23:53;;;;;;;58.92;26.10;;;-3.90;99.90;;;;;;5033613;28;20041;-75
2022/12/18 09:26:19;;;;;;;62.92;26.77;;;-3.90;99.90;;;;;;5035094;28;20058;-74
2022/12/18 09:28:45;;;;;;;61.22;24.70;;;-3.80;99.90;;;;;;5033757;28;20036;-75
2022/12/18 09:31:15;;;;;;;55.25;26.27;;;-3.70;99.90;;;;;;5049859;28;20392;-75
2022/12/18 09:33:45;;;;;;;74.40;27.98;;;-3.60;99.90;;;;;;5053208;28;20428;-75
2022/12/18 09:36:13;;;;;;;60.88;28.50;;;-3.60;99.90;;;;;;5053182;28;20099;-74
2022/12/18 09:38:39;;;;;;;63.33;27.30;;;-3.50;99.90;;;;;;5053512;28;20484;-75
2022/12/18 09:41:33;;;;;;;68.38;28.48;;;-3.50;99.90;;;;;;5053188;28;20053;-75
2022/12/18 09:44:05;;;;;;;66.25;27.08;;;-3.50;99.90;;;;;;5038087;28;20044;-74
2022/12/18 09:46:36;;;;;;;63.10;26.30;;;-3.40;99.90;;;;;;5052632;28;20061;-75
2022/12/18 09:49:06;;;;;;;64.82;26.80;;;-3.40;99.90;;;;;;5053361;28;20070;-76
2022/12/18 09:51:37;;;;;;;63.38;27.45;;;-3.30;99.90;;;;;;5053333;28;20463;-76
2022/12/18 09:54:15;;;;;;;55.20;25.45;;;-3.40;99.90;;;;;;5053081;28;20052;-76
2022/12/18 09:56:43;;;;;;;64.57;26.27;;;-3.30;99.90;;;;;;5052927;28;20056;-75
2022/12/18 09:59:33;;;;;;;58.05;26.85;;;-3.30;99.90;;;;;;5054331;28;20068;-76
2022/12/18 10:01:59;;;;;;;61.70;26.42;;;-3.30;99.90;;;;;;5052884;28;20040;-76
2022/12/18 10:04:28;;;;;;;58.13;26.80;;;-3.20;99.90;;;;;;5053083;28;20055;-76
2022/12/18 10:07:24;;;;;;;55.88;25.90;;;-3.10;99.90;;;;;;5052968;28;20041;-76
2022/12/18 10:10:19;;;;;;;53.88;24.75;;;-3.00;99.90;;;;;;5052681;28;20408;-76
2022/12/18 10:12:56;;;;;;;67.25;26.67;;;-2.90;99.90;;;;;;5035305;28;20051;-75
2022/12/18 10:15:39;;;;;;;62.55;27.23;;;-2.80;99.90;;;;;;5033809;28;20140;-75
2022/12/18 10:18:05;;;;;;;61.03;26.05;;;-2.70;99.90;;;;;;5032946;28;20049;-76
2022/12/18 10:20:56;;;;;;;62.67;29.10;;;-2.70;99.90;;;;;;5032611;28;20068;-75
2022/12/18 10:23:51;;;;;;;58.22;27.08;;;-2.50;99.90;;;;;;5032507;28;20075;-76
2022/12/18 10:26:17;;;;;;;67.50;27.20;;;-2.50;99.90;;;;;;5030821;28;20143;-76
2022/12/18 10:28:43;;;;;;;59.08;26.70;;;-2.50;99.90;;;;;;5032479;28;20080;-75
2022/12/18 10:31:19;;;;;;;55.75;25.55;;;-2.50;99.90;;;;;;5038274;28;20040;-76
2022/12/18 10:33:45;;;;;;;50.88;21.92;;;-2.40;99.90;;;;;;5052193;28;20049;-75
2022/12/18 10:36:11;;;;;;;58.67;23.55;;;-2.50;99.90;;;;;;5046383;28;20102;-75
2022/12/18 10:38:37;;;;;;;52.10;23.52;;;-2.50;99.90;;;;;;5052078;28;20045;-76
2022/12/18 10:41:04;;;;;;;50.58;24.95;;;-2.50;99.90;;;;;;5049047;28;20037;-76
2022/12/18 10:43:38;;;;;;;54.35;23.88;;;-2.60;99.90;;;;;;5046316;28;20045;-76
2022/12/18 10:46:07;;;;;;;49.40;22.50;;;-2.50;99.90;;;;;;5052053;28;20339;-76
2022/12/18 10:48:40;;;;;;;49.92;23.23;;;-2.50;99.90;;;;;;5052345;28;20053;-76
2022/12/18 10:51:06;;;;;;;;;;;-2.50;99.90;;;;;;5052741;28;20098;-76
2022/12/18 10:53:36;;;;;;;48.92;21.33;;;-2.50;99.90;;;;;;5052252;28;19928;-76
2022/12/18 10:56:04;;;;;;;47.65;19.27;;;-2.50;99.90;;;;;;5051927;28;20047;-76
2022/12/18 10:58:32;;;;;;;49.15;21.08;;;-2.50;99.90;;;;;;5051882;28;20053;-76
2022/12/18 11:01:16;;;;;;;40.75;20.08;;;-2.40;99.90;;;;;;5052200;28;20041;-76
2022/12/18 11:03:50;;;;;;;39.53;19.50;;;-2.40;99.90;;;;;;5052112;28;20133;-76
2022/12/18 11:06:21;;;;;;;40.28;19.73;;;-2.40;99.90;;;;;;5051859;28;20049;-76
2022/12/18 11:09:20;;;;;;;37.72;18.15;;;-2.40;99.90;;;;;;5052088;28;20052;-76
2022/12/18 11:11:54;;;;;;;42.78;18.10;;;-2.30;99.90;;;;;;5044725;28;20053;-76
2022/12/18 11:14:33;;;;;;;38.97;18.05;;;-2.30;99.90;;;;;;5034365;28;20055;-75
2022/12/18 11:17:00;;;;;;;41.85;19.25;;;-2.20;99.90;;;;;;5031840;28;20156;-75
2022/12/18 11:19:36;;;;;;;40.45;17.92;;;-2.20;99.90;;;;;;5031735;28;20049;-75
2022/12/18 11:22:19;;;;;;;35.58;17.00;;;-2.20;99.90;;;;;;5031863;28;20046;-75
2022/12/18 11:24:53;;;;;;;33.05;16.73;;;-2.20;99.90;;;;;;5032066;28;20081;-75
2022/12/18 11:27:19;;;;;;;38.10;17.05;;;-2.20;99.90;;;;;;5031998;28;20045;-75
2022/12/18 11:29:45;;;;;;;44.15;16.83;;;-2.10;99.90;;;;;;5031652;28;20511;-75
2022/12/18 11:32:14;;;;;;;43.70;22.00;;;-2.00;99.90;;;;;;5040363;28;20088;-75
2022/12/18 11:34:45;;;;;;;59.03;25.63;;;-2.00;99.90;;;;;;5051614;28;20079;-75
2022/12/18 11:37:13;;;;;;;57.25;23.35;;;-1.90;99.90;;;;;;5051546;28;20484;-73
2022/12/18 11:39:49;;;;;;;44.55;19.77;;;-1.90;99.90;;;;;;5051641;28;20045;-73
2022/12/18 11:42:25;;;;;;;41.55;18.98;;;-1.90;99.90;;;;;;5051462;28;20048;-73
2022/12/18 11:45:01;;;;;;;48.15;19.48;;;-1.80;99.90;;;;;;5051259;28;20064;-74
2022/12/18 11:47:31;;;;;;;47.65;19.73;;;-1.80;99.90;;;;;;5066489;28;20515;-74
2022/12/18 11:50:00;;;;;;;40.65;20.17;;;-1.70;99.90;;;;;;5034286;28;20103;-73
2022/12/18 11:52:52;;;;;;;39.70;18.52;;;-1.80;99.90;;;;;;5031718;28;20042;-73
2022/12/18 11:55:58;;;;;;;37.08;19.35;;;-1.70;99.90;;;;;;5030554;28;20054;-73
2022/12/18 11:58:38;;;;;;;35.67;16.95;;;-1.70;99.90;;;;;;5031390;28;20049;-73
2022/12/18 12:01:14;;;;;;;36.78;20.15;;;-1.80;99.90;;;;;;5031761;28;20097;-73
2022/12/18 12:03:59;;;;;;;37.53;17.38;;;-1.80;99.90;;;;;;5031369;28;20131;-73
2022/12/18 12:06:46;;;;;;;36.22;16.98;;;-1.70;99.90;;;;;;5031232;28;20409;-73
2022/12/18 12:09:31;;;;;;;34.72;16.48;;;-1.70;99.90;;;;;;5031626;28;20048;-75
2022/12/18 12:12:22;;;;;;;31.27;13.93;;;-1.70;99.90;;;;;;5034952;28;20460;-77
2022/12/18 12:15:54;;;;;;;29.13;15.20;;;-1.70;99.90;;;;;;5034325;28;20056;-75
2022/12/18 12:18:57;;;;;;;32.40;15.55;;;-1.60;99.90;;;;;;4977593;28;20050;-75
2022/12/18 12:21:35;;;;;;;30.52;13.77;;;-1.70;99.90;;;;;;5034787;28;20053;-75
2022/12/18 12:24:20;;;;;;;30.50;15.40;;;-1.70;99.90;;;;;;5036101;28;20076;-75
2022/12/18 12:27:00;;;;;;;29.23;13.13;;;-1.70;99.90;;;;;;5034053;28;20501;-75
2022/12/18 12:29:39;;;;;;;28.20;13.38;;;-1.60;99.90;;;;;;5035021;28;20045;-75
2022/12/18 12:32:22;;;;;;;26.33;12.65;;;-1.60;99.90;;;;;;5034891;28;20045;-75
2022/12/18 12:35:14;;;;;;;22.60;10.68;;;-1.60;99.90;;;;;;5034618;28;20053;-75
2022/12/18 12:37:55;;;;;;;26.77;13.32;;;-1.60;99.90;;;;;;5035875;28;20054;-75
2022/12/18 12:40:26;;;;;;;25.30;10.77;;;-1.60;99.90;;;;;;5034595;28;20077;-74
2022/12/18 12:43:13;;;;;;;22.33;11.63;;;-1.50;99.90;;;;;;5034434;28;20045;-75
2022/12/18 12:45:51;;;;;;;46.90;18.65;;;-1.50;99.90;;;;;;5034218;28;20494;-75
2022/12/18 12:48:28;;;;;;;44.03;16.80;;;-1.50;99.90;;;;;;5034500;28;20057;-75